EGNR - Hawarden
Distance from station: E 5mi, 14km
Updated: 01/20/2018 2:50am
Light rain, Mostly cloudy
Light rain, Mostly cloudy
 Wind from SSE
Wind: SSE 6 mph , 9 km/h
Temperature: 37°F , 3°C
Wind Chill: 32°F , 0°C
Dew Point: 36°F , 2°C
Humidity: 93%
Barometer: 29.53 inHg , 1000 hPa
Summary: Light Rain
Clouds: Mostly Cloudy
Visibility: 6 miles , 10 km
Cloud details: Few Clouds 1000 ft
Mostly Cloudy 2000 ft
2018/01/20 10:50 EGNR 201050Z 16005KT 9999 9000SW -RA FEW010 BKN020 03/02 Q1000